Time;durP1;ratioP1;P1;durP2;ratioP2;P2;SDS_P1;SDS_P2;PMS_P1;PMS_P2;Temp;Humidity;BMP_temperature;BMP_pressure;BME280_temperature;BME280_humidity;BME280_pressure;Samples;Min_cycle;Max_cycle;Signal;HPM_P1;HPM_P2
2022/05/17 00:01:03;;;;;;;6.63;6.13;;;18.10;99.90;;;;;;4973930;28;20210;-76
2022/05/17 00:03:34;;;;;;;9.05;6.65;;;18.00;99.90;;;;;;4977089;28;20198;-77
2022/05/17 00:06:04;;;;;;;7.45;6.75;;;18.10;99.90;;;;;;4974200;28;20199;-76
2022/05/17 00:08:32;;;;;;;8.73;6.75;;;18.00;99.90;;;;;;4973988;28;20257;-76
2022/05/17 00:11:00;;;;;;;7.63;6.68;;;18.10;99.90;;;;;;4973888;28;20269;-75
2022/05/17 00:13:28;;;;;;;9.80;6.47;;;18.00;99.90;;;;;;4973148;28;20257;-76
2022/05/17 00:15:56;;;;;;;6.85;6.25;;;18.00;99.90;;;;;;4973713;28;20226;-76
2022/05/17 00:18:25;;;;;;;7.40;6.65;;;17.90;99.90;;;;;;4973785;28;20257;-75
2022/05/17 00:20:54;;;;;;;6.25;5.65;;;17.90;99.90;;;;;;4973852;28;20213;-75
2022/05/17 00:23:22;;;;;;;10.20;6.25;;;17.90;99.90;;;;;;4972677;28;20733;-75
2022/05/17 00:25:50;;;;;;;11.65;6.40;;;17.90;99.90;;;;;;4973656;28;20195;-76
2022/05/17 00:28:21;;;;;;;6.72;6.03;;;17.90;99.90;;;;;;4973318;28;20226;-76
2022/05/17 00:30:50;;;;;;;6.78;6.13;;;18.00;99.90;;;;;;4973163;28;20210;-76
2022/05/17 00:33:21;;;;;;;6.03;5.10;;;18.10;99.90;;;;;;4972335;28;20559;-76
2022/05/17 00:35:49;;;;;;;8.07;5.20;;;18.30;99.90;;;;;;4973354;28;20273;-77
2022/05/17 00:38:18;;;;;;;5.82;5.22;;;18.60;99.90;;;;;;4973502;28;20277;-77
2022/05/17 00:40:47;;;;;;;6.68;6.15;;;18.80;99.90;;;;;;4973419;28;20578;-76
2022/05/17 00:43:27;;;;;;;7.47;6.22;;;18.90;99.90;;;;;;4972504;28;20202;-78
2022/05/17 00:45:55;;;;;;;7.00;6.45;;;18.70;99.90;;;;;;4972302;28;20186;-78
2022/05/17 00:48:24;;;;;;;7.07;6.30;;;18.70;99.90;;;;;;4972914;28;20219;-78
2022/05/17 00:50:54;;;;;;;7.25;5.65;;;18.70;99.90;;;;;;4973350;28;20233;-78
2022/05/17 00:53:27;;;;;;;10.10;6.35;;;18.60;99.90;;;;;;4972474;28;20194;-77
2022/05/17 00:55:56;;;;;;;6.70;6.10;;;18.60;99.90;;;;;;4972999;28;20226;-78
2022/05/17 00:58:28;;;;;;;8.02;6.15;;;18.60;99.90;;;;;;4972762;28;20253;-78
2022/05/17 01:01:02;;;;;;;8.65;5.82;;;18.60;99.90;;;;;;4970625;28;20234;-78
2022/05/17 01:03:35;;;;;;;8.52;6.03;;;18.50;99.90;;;;;;4971780;28;20676;-77
2022/05/17 01:06:03;;;;;;;6.50;5.90;;;18.40;99.90;;;;;;4972443;28;20190;-77
2022/05/17 01:08:32;;;;;;;6.57;5.88;;;18.40;99.90;;;;;;4972741;28;20246;-78
2022/05/17 01:11:00;;;;;;;9.65;6.00;;;18.40;99.90;;;;;;4973028;28;20557;-77
2022/05/17 01:16:14;;;;;;;8.52;6.35;;;18.30;99.90;;;;;;4966568;28;20226;-76
2022/05/17 01:18:43;;;;;;;6.75;6.03;;;18.30;99.90;;;;;;4966803;28;20557;-76
2022/05/17 01:21:13;;;;;;;5.88;5.00;;;18.30;99.90;;;;;;4968891;28;20250;-76
2022/05/17 01:23:41;;;;;;;6.57;5.35;;;18.30;99.90;;;;;;4970225;28;20294;-76
2022/05/17 01:26:12;;;;;;;11.02;5.80;;;18.30;99.90;;;;;;4972801;28;20195;-76
2022/05/17 01:28:40;;;;;;;7.07;6.30;;;18.30;99.90;;;;;;4972392;28;20314;-75
2022/05/17 01:31:08;;;;;;;6.13;5.43;;;18.40;99.90;;;;;;4972096;28;20222;-76
2022/05/17 01:33:39;;;;;;;6.20;5.70;;;18.50;99.90;;;;;;4971575;28;20198;-76
2022/05/17 01:36:10;;;;;;;7.22;6.28;;;18.40;99.90;;;;;;4972419;28;20222;-76
2022/05/17 01:38:40;;;;;;;7.00;6.30;;;18.30;99.90;;;;;;4972248;28;20238;-76
2022/05/17 01:41:09;;;;;;;6.90;5.80;;;18.20;99.90;;;;;;4972378;28;20230;-76
2022/05/17 01:43:37;;;;;;;6.63;5.50;;;18.20;99.90;;;;;;4971412;28;20241;-74
2022/05/17 01:46:06;;;;;;;7.70;5.35;;;18.20;99.90;;;;;;4970803;28;20627;-76
2022/05/17 01:48:34;;;;;;;6.90;6.20;;;18.20;99.90;;;;;;4972180;28;20269;-76
2022/05/17 01:51:03;;;;;;;7.65;6.28;;;18.10;99.90;;;;;;4972236;28;20209;-76
2022/05/17 01:53:31;;;;;;;7.72;5.97;;;18.10;99.90;;;;;;4971318;28;20229;-76
2022/05/17 01:56:01;;;;;;;9.75;5.90;;;18.10;99.90;;;;;;4971626;28;20295;-77
2022/05/17 01:58:29;;;;;;;6.45;5.80;;;18.10;99.90;;;;;;4971760;28;20261;-77
2022/05/17 02:00:57;;;;;;;8.10;5.75;;;18.00;99.90;;;;;;4971782;28;20233;-77
2022/05/17 02:03:25;;;;;;;4.60;4.18;;;18.10;99.90;;;;;;4975998;28;20261;-76
2022/05/17 02:05:53;;;;;;;5.65;5.25;;;18.20;99.90;;;;;;4972002;28;20206;-77
2022/05/17 02:08:21;;;;;;;6.15;5.32;;;18.20;99.90;;;;;;4972877;28;20262;-78
2022/05/17 02:10:49;;;;;;;5.43;4.07;;;18.30;99.90;;;;;;4972893;28;20612;-78
2022/05/17 02:13:19;;;;;;;6.10;4.68;;;18.10;99.90;;;;;;4971332;28;20227;-77
2022/05/17 02:15:47;;;;;;;4.93;4.43;;;18.00;99.90;;;;;;4972339;28;20578;-77
2022/05/17 02:18:15;;;;;;;5.30;4.90;;;17.90;99.90;;;;;;4972202;28;20287;-78
2022/05/17 02:20:43;;;;;;;5.85;5.15;;;17.80;99.90;;;;;;4971940;28;20229;-79
2022/05/17 02:23:10;;;;;;;5.40;4.80;;;17.80;99.90;;;;;;4971074;28;20241;-78
2022/05/17 02:25:38;;;;;;;6.95;4.22;;;17.90;99.90;;;;;;4971841;28;20766;-79
2022/05/17 02:28:07;;;;;;;5.05;4.57;;;17.80;99.90;;;;;;4971793;28;20281;-78
2022/05/17 02:30:37;;;;;;;6.53;4.65;;;17.90;99.90;;;;;;4971362;28;20234;-78
2022/05/17 02:33:06;;;;;;;6.25;4.65;;;17.90;99.90;;;;;;4971356;28;20644;-76
2022/05/17 02:35:34;;;;;;;6.45;5.00;;;17.70;99.90;;;;;;4972471;28;20238;-76
2022/05/17 02:38:02;;;;;;;4.68;4.28;;;17.80;99.90;;;;;;4972659;28;20211;-76
2022/05/17 02:40:30;;;;;;;5.43;4.32;;;17.80;99.90;;;;;;4972390;28;20230;-77
2022/05/17 02:42:58;;;;;;;5.40;5.00;;;17.70;99.90;;;;;;4971634;28;20202;-77
2022/05/17 02:45:26;;;;;;;5.18;4.85;;;17.80;99.90;;;;;;4971734;28;20234;-77
2022/05/17 02:47:56;;;;;;;8.20;4.32;;;17.80;99.90;;;;;;4971616;28;20260;-78
2022/05/17 02:50:24;;;;;;;5.25;4.75;;;17.90;99.90;;;;;;4971943;28;20261;-77
2022/05/17 02:52:52;;;;;;;4.72;4.18;;;17.90;99.90;;;;;;4971453;28;20587;-77
2022/05/17 02:55:20;;;;;;;4.93;4.53;;;17.90;99.90;;;;;;4971583;28;20555;-77
2022/05/17 02:57:49;;;;;;;5.75;5.35;;;17.80;99.90;;;;;;4971653;28;20230;-76
2022/05/17 03:00:18;;;;;;;5.95;5.07;;;17.80;99.90;;;;;;4971641;28;20226;-77
2022/05/17 03:02:46;;;;;;;6.80;4.60;;;17.70;99.90;;;;;;4975476;28;20230;-78
2022/05/17 03:05:15;;;;;;;8.13;4.95;;;17.80;99.90;;;;;;4996740;23;20205;-63
2022/05/17 03:07:43;;;;;;;6.03;4.05;;;17.80;99.90;;;;;;5002232;28;20256;-62
2022/05/17 03:10:12;;;;;;;4.80;4.30;;;17.70;99.90;;;;;;5002801;28;20602;-62
2022/05/17 03:12:41;;;;;;;4.97;4.55;;;17.70;99.90;;;;;;4995941;28;20201;-63
2022/05/17 03:15:10;;;;;;;5.05;4.13;;;17.60;99.90;;;;;;4997356;28;20222;-63
2022/05/17 03:17:37;;;;;;;7.95;4.10;;;17.80;99.90;;;;;;4993055;28;20198;-63
2022/05/17 03:20:07;;;;;;;5.60;4.00;;;17.90;99.90;;;;;;4994284;28;20277;-63
2022/05/17 03:22:36;;;;;;;4.63;4.22;;;17.90;99.90;;;;;;4989140;28;20616;-63
2022/05/17 03:25:04;;;;;;;5.00;4.50;;;17.90;99.90;;;;;;4993809;28;20289;-64
2022/05/17 03:27:53;;;;;;;4.57;3.70;;;17.90;99.90;;;;;;4994012;28;20284;-62
2022/05/17 03:30:22;;;;;;;3.90;3.60;;;17.90;99.90;;;;;;4993556;28;20226;-63
2022/05/17 03:32:50;;;;;;;5.43;3.85;;;17.80;99.90;;;;;;4993355;28;20221;-63
2022/05/17 03:35:18;;;;;;;4.13;3.80;;;17.90;99.90;;;;;;4993885;28;20225;-62
2022/05/17 03:37:48;;;;;;;4.13;3.85;;;17.80;99.90;;;;;;4992185;28;20194;-63
2022/05/17 03:40:16;;;;;;;12.05;4.65;;;17.60;99.90;;;;;;4992740;28;20237;-63
2022/05/17 03:42:44;;;;;;;4.00;3.60;;;17.60;99.90;;;;;;4993069;28;20647;-63
2022/05/17 03:45:13;;;;;;;4.20;3.80;;;17.60;99.90;;;;;;4993401;28;20331;-63
2022/05/17 03:47:41;;;;;;;4.45;4.05;;;17.60;99.90;;;;;;4993898;28;20260;-64
2022/05/17 03:50:13;;;;;;;4.97;3.78;;;17.50;99.90;;;;;;4993521;28;20304;-63
2022/05/17 03:52:41;;;;;;;4.25;3.80;;;17.40;99.90;;;;;;4993167;28;20228;-63
2022/05/17 03:55:11;;;;;;;3.25;3.00;;;17.50;99.90;;;;;;4991606;28;20194;-62
2022/05/17 03:57:39;;;;;;;6.13;3.38;;;17.60;99.90;;;;;;4993786;28;20280;-62
2022/05/17 04:00:08;;;;;;;7.35;3.50;;;17.60;99.90;;;;;;4993188;28;20289;-63
2022/05/17 04:02:37;;;;;;;4.57;3.58;;;17.60;99.90;;;;;;4992812;28;20225;-63
2022/05/17 04:05:05;;;;;;;5.20;4.15;;;17.30;99.90;;;;;;4993101;28;20233;-64
2022/05/17 04:07:33;;;;;;;5.15;4.43;;;17.30;99.90;;;;;;4993425;28;20871;-63
2022/05/17 04:10:01;;;;;;;3.83;3.40;;;17.20;99.90;;;;;;4993195;28;20221;-63
2022/05/17 04:12:31;;;;;;;3.85;3.42;;;17.40;99.90;;;;;;4989155;28;20198;-63
2022/05/17 04:14:59;;;;;;;6.82;3.60;;;17.50;99.90;;;;;;4993114;28;20198;-63
2022/05/17 04:17:26;;;;;;;6.32;3.92;;;17.50;99.90;;;;;;4993345;28;20229;-64
2022/05/17 04:19:54;;;;;;;4.32;3.80;;;17.70;99.90;;;;;;4993212;28;20734;-63
2022/05/17 04:22:22;;;;;;;3.90;3.50;;;17.80;99.90;;;;;;4992062;28;20202;-63
2022/05/17 04:24:53;;;;;;;5.68;4.07;;;17.80;99.90;;;;;;4992973;28;20289;-63
2022/05/17 04:27:22;;;;;;;4.57;3.88;;;17.80;99.90;;;;;;4993075;28;20260;-62
2022/05/17 04:29:51;;;;;;;5.07;4.03;;;17.60;99.90;;;;;;4991945;28;20714;-62
2022/05/17 04:32:20;;;;;;;6.18;4.00;;;17.70;99.90;;;;;;4991824;28;20230;-63
2022/05/17 04:34:48;;;;;;;4.03;3.60;;;17.50;99.90;;;;;;4992579;28;20245;-63
2022/05/17 04:37:16;;;;;;;4.47;3.70;;;17.60;99.90;;;;;;4992748;28;20221;-62
2022/05/17 04:39:43;;;;;;;5.70;3.60;;;17.80;99.90;;;;;;4991799;28;20240;-64
2022/05/17 04:42:11;;;;;;;6.00;4.72;;;17.90;99.90;;;;;;4992144;28;20297;-62
2022/05/17 04:44:39;;;;;;;3.80;3.50;;;18.00;99.90;;;;;;4986569;28;20253;-64
2022/05/17 04:47:10;;;;;;;4.40;4.00;;;18.10;99.90;;;;;;4988969;28;20214;-63
2022/05/17 04:49:38;;;;;;;4.18;3.40;;;18.20;99.90;;;;;;4992031;28;20222;-63
2022/05/17 04:52:07;;;;;;;4.85;4.45;;;18.40;99.90;;;;;;4989872;28;20228;-63
2022/05/17 04:54:36;;;;;;;3.80;3.50;;;18.40;99.90;;;;;;4988711;28;20256;-63
2022/05/17 04:57:05;;;;;;;5.43;4.38;;;18.40;99.90;;;;;;4981266;28;20687;-63
2022/05/17 04:59:32;;;;;;;4.97;4.43;;;18.20;99.90;;;;;;4975168;28;20238;-63
2022/05/17 05:02:00;;;;;;;4.13;3.60;;;18.20;99.90;;;;;;4975882;28;21067;-64
2022/05/17 05:04:30;;;;;;;4.28;3.97;;;18.10;99.90;;;;;;4975624;28;20202;-64
2022/05/17 05:06:58;;;;;;;6.78;5.22;;;18.10;99.90;;;;;;4975148;28;20307;-63
2022/05/17 05:09:26;;;;;;;6.38;4.93;;;17.90;99.90;;;;;;4975029;28;20325;-63
2022/05/17 05:11:54;;;;;;;5.90;5.40;;;17.70;99.90;;;;;;4975275;28;20751;-63
2022/05/17 05:14:22;;;;;;;8.15;6.40;;;17.50;99.90;;;;;;4975244;28;20214;-63
2022/05/17 05:16:49;;;;;;;7.88;6.88;;;17.30;99.90;;;;;;4975562;28;20230;-64
2022/05/17 05:19:17;;;;;;;5.45;4.68;;;17.30;99.90;;;;;;4974114;28;20198;-64
2022/05/17 05:21:47;;;;;;;5.60;5.00;;;17.40;99.90;;;;;;4976654;28;20201;-63
2022/05/17 05:24:15;;;;;;;6.43;5.82;;;18.00;99.90;;;;;;4976127;28;20221;-64
2022/05/17 05:26:42;;;;;;;5.72;5.20;;;18.30;99.90;;;;;;4975183;28;20249;-64
2022/05/17 05:29:10;;;;;;;5.30;4.80;;;18.30;99.90;;;;;;4974560;28;20209;-64
2022/05/17 05:31:38;;;;;;;3.88;3.58;;;18.40;99.90;;;;;;4975084;28;20686;-63
2022/05/17 05:34:06;;;;;;;6.65;5.15;;;18.50;99.90;;;;;;4975952;28;20315;-64
2022/05/17 05:36:34;;;;;;;7.10;6.40;;;18.90;99.90;;;;;;4974383;28;20360;-63
2022/05/17 05:39:04;;;;;;;5.88;5.25;;;18.90;99.90;;;;;;4972998;28;20225;-64
2022/05/17 05:41:32;;;;;;;6.70;5.07;;;18.80;99.90;;;;;;4976097;28;20296;-64
2022/05/17 05:43:59;;;;;;;9.40;7.70;;;18.80;99.90;;;;;;4973986;28;20297;-64
2022/05/17 05:46:28;;;;;;;10.55;7.30;;;18.80;99.90;;;;;;4974221;28;20404;-64
2022/05/17 05:48:56;;;;;;;5.28;4.82;;;18.50;99.90;;;;;;4972412;28;20293;-64
2022/05/17 05:51:25;;;;;;;6.72;5.60;;;18.50;99.90;;;;;;4975447;28;20249;-64
2022/05/17 05:53:53;;;;;;;6.47;5.88;;;18.90;99.90;;;;;;4970430;28;20218;-64
2022/05/17 05:56:22;;;;;;;8.15;7.35;;;19.00;99.90;;;;;;4973463;28;20324;-64
2022/05/17 05:58:50;;;;;;;8.32;7.68;;;19.10;99.90;;;;;;4972129;28;20205;-64
2022/05/17 06:01:18;;;;;;;6.70;6.10;;;18.80;99.90;;;;;;4975642;28;20230;-63
2022/05/17 06:03:46;;;;;;;8.07;7.35;;;18.80;99.90;;;;;;4975038;28;20229;-63
2022/05/17 06:06:16;;;;;;;6.45;5.85;;;18.40;99.90;;;;;;4975438;28;20269;-64
2022/05/17 06:08:44;;;;;;;8.10;7.38;;;18.90;99.90;;;;;;4974549;28;21325;-64
2022/05/17 06:11:11;;;;;;;10.98;8.77;;;18.60;99.90;;;;;;4975079;28;20343;-64
2022/05/17 06:13:41;;;;;;;10.82;9.65;;;18.60;99.90;;;;;;4974816;28;20289;-64
2022/05/17 06:16:09;;;;;;;13.43;8.70;;;18.50;99.90;;;;;;4975731;28;20257;-64
2022/05/17 06:18:37;;;;;;;10.00;9.00;;;18.70;99.90;;;;;;4973245;28;20237;-64
2022/05/17 06:21:05;;;;;;;7.78;7.07;;;18.80;99.90;;;;;;4983396;28;20197;-64
2022/05/17 06:23:35;;;;;;;8.55;7.80;;;18.90;99.90;;;;;;4989230;28;20210;-65
2022/05/17 06:26:03;;;;;;;8.25;7.45;;;19.00;99.90;;;;;;4988986;28;20226;-65
2022/05/17 06:28:31;;;;;;;8.07;7.38;;;19.00;99.90;;;;;;4987939;28;20206;-64
2022/05/17 06:31:00;;;;;;;7.93;7.00;;;19.00;99.90;;;;;;4989571;28;20737;-65
2022/05/17 06:33:29;;;;;;;7.00;6.40;;;19.00;99.90;;;;;;4990272;28;20209;-64
2022/05/17 06:35:57;;;;;;;7.60;6.90;;;19.20;99.90;;;;;;4990953;28;20245;-65
2022/05/17 06:38:25;;;;;;;8.52;7.05;;;19.30;99.90;;;;;;4991144;28;20206;-65
2022/05/17 06:40:53;;;;;;;7.30;6.60;;;19.30;99.90;;;;;;4991313;28;20244;-64
2022/05/17 06:43:20;;;;;;;7.45;6.72;;;19.40;99.90;;;;;;4990585;28;20237;-64
2022/05/17 06:45:49;;;;;;;9.73;6.63;;;19.40;99.90;;;;;;4993792;28;20229;-65
2022/05/17 06:48:20;;;;;;;8.63;6.60;;;19.50;99.90;;;;;;4994710;28;20218;-64
2022/05/17 06:50:48;;;;;;;7.70;7.00;;;19.50;99.90;;;;;;4994785;28;20226;-65
2022/05/17 06:53:15;;;;;;;11.52;8.15;;;19.50;99.90;;;;;;4994158;28;20210;-65
2022/05/17 06:55:43;;;;;;;10.68;7.63;;;19.60;99.90;;;;;;4994356;28;20225;-65
2022/05/17 06:58:11;;;;;;;7.95;7.25;;;19.70;99.90;;;;;;4994742;28;20730;-64
2022/05/17 07:00:39;;;;;;;8.90;8.10;;;19.70;99.90;;;;;;4992651;28;20197;-64
2022/05/17 07:03:07;;;;;;;10.27;7.40;;;19.70;99.90;;;;;;4993331;28;20554;-64
2022/05/17 07:05:36;;;;;;;9.48;7.78;;;19.70;99.90;;;;;;4990249;28;20236;-64
2022/05/17 07:08:05;;;;;;;9.32;7.97;;;19.80;99.90;;;;;;4988406;28;20198;-65
2022/05/17 07:13:19;;;;;;;10.15;7.57;;;19.90;99.90;;;;;;4993938;28;20628;-65
2022/05/17 07:15:48;;;;;;;7.50;6.80;;;20.10;99.90;;;;;;4994389;28;20785;-65
2022/05/17 07:18:19;;;;;;;8.95;6.97;;;20.30;99.90;;;;;;4994623;28;20206;-64
2022/05/17 07:20:48;;;;;;;8.10;7.03;;;20.30;99.90;;;;;;4994917;28;20608;-65
2022/05/17 07:23:17;;;;;;;7.15;6.22;;;20.30;99.90;;;;;;4994175;28;20256;-65
2022/05/17 07:25:46;;;;;;;10.23;6.80;;;20.40;99.90;;;;;;4994463;28;20265;-65
2022/05/17 07:28:17;;;;;;;10.40;7.60;;;20.60;99.90;;;;;;4994852;28;20206;-65
2022/05/17 07:30:45;;;;;;;7.45;6.95;;;20.60;99.90;;;;;;4991919;28;20225;-65
2022/05/17 07:33:13;;;;;;;8.35;7.55;;;20.70;99.90;;;;;;4993621;28;20233;-65
2022/05/17 07:35:41;;;;;;;11.48;7.70;;;20.80;99.90;;;;;;4994197;28;20226;-65
2022/05/17 07:38:10;;;;;;;9.32;7.15;;;20.80;99.90;;;;;;4994084;28;20202;-65
2022/05/17 07:40:39;;;;;;;8.63;7.82;;;20.80;99.90;;;;;;4994289;28;20198;-64
2022/05/17 07:43:07;;;;;;;11.02;8.20;;;20.90;99.90;;;;;;4993522;28;20202;-65
2022/05/17 07:45:35;;;;;;;9.15;8.35;;;21.00;99.90;;;;;;4993511;28;20225;-65
2022/05/17 07:48:04;;;;;;;10.65;7.82;;;20.90;99.90;;;;;;4993512;28;20202;-65
2022/05/17 07:50:32;;;;;;;10.88;8.30;;;20.90;99.90;;;;;;4993648;28;20619;-65
2022/05/17 07:53:07;;;;;;;15.23;8.48;;;20.90;99.90;;;;;;4993246;28;20225;-64
2022/05/17 07:55:37;;;;;;;7.97;7.18;;;21.00;99.90;;;;;;4993102;28;20225;-64
2022/05/17 07:58:06;;;;;;;10.15;7.00;;;21.10;99.90;;;;;;4993859;28;20648;-65
2022/05/17 08:00:34;;;;;;;10.75;7.40;;;21.40;99.90;;;;;;4993272;28;20241;-65
2022/05/17 08:03:04;;;;;;;7.32;6.60;;;21.50;99.90;;;;;;4992549;28;20686;-65
2022/05/17 08:05:32;;;;;;;9.32;6.43;;;21.60;99.90;;;;;;4993300;28;20241;-65
2022/05/17 08:08:00;;;;;;;9.48;6.55;;;21.80;99.90;;;;;;4993355;28;20260;-65
2022/05/17 08:10:28;;;;;;;9.55;5.93;;;22.00;99.90;;;;;;4993222;28;20248;-65
2022/05/17 08:12:58;;;;;;;9.55;5.90;;;22.00;99.90;;;;;;4992663;28;20252;-65
2022/05/17 08:15:27;;;;;;;6.97;6.00;;;22.00;99.90;;;;;;4986928;28;20260;-65
2022/05/17 08:18:01;;;;;;;7.10;6.40;;;22.00;99.90;;;;;;4993025;28;20202;-65
2022/05/17 08:20:30;;;;;;;6.57;4.78;;;22.10;99.90;;;;;;4993213;28;20229;-65
2022/05/17 08:22:58;;;;;;;9.68;6.28;;;22.20;99.90;;;;;;4992586;28;20233;-64
2022/05/17 08:28:13;;;;;;;8.65;5.07;;;22.50;99.90;;;;;;4993129;28;20288;-64
2022/05/17 08:30:42;;;;;;;7.45;5.72;;;22.60;99.90;;;;;;4990199;28;20297;-65
2022/05/17 08:33:15;;;;;;;8.40;6.25;;;22.70;99.90;;;;;;4992133;28;20241;-64
2022/05/17 08:35:49;;;;;;;11.88;6.25;;;22.80;99.90;;;;;;4992920;28;20594;-64
2022/05/17 08:38:20;;;;;;;8.70;6.03;;;23.00;99.90;;;;;;4992688;28;20256;-65
2022/05/17 08:41:00;;;;;;;6.07;5.47;;;23.10;99.90;;;;;;4992840;28;20233;-64
2022/05/17 08:43:42;;;;;;;8.40;4.93;;;23.30;99.90;;;;;;4992190;28;20220;-65
2022/05/17 08:46:23;;;;;;;7.80;5.60;;;23.40;99.90;;;;;;4992460;28;20238;-65
2022/05/17 08:48:53;;;;;;;5.57;5.15;;;23.70;99.90;;;;;;4992609;28;20586;-65
2022/05/17 08:51:32;;;;;;;10.73;6.43;;;23.80;99.90;;;;;;4992535;28;20798;-65
2022/05/17 08:54:00;;;;;;;6.72;5.85;;;24.00;99.90;;;;;;4991979;28;20225;-65
2022/05/17 08:56:30;;;;;;;7.13;5.88;;;24.00;99.90;;;;;;4992376;28;20218;-65
2022/05/17 08:59:01;;;;;;;11.27;5.78;;;23.90;99.90;;;;;;4992203;28;20705;-65
2022/05/17 09:01:36;;;;;;;10.82;5.80;;;23.90;99.90;;;;;;4987449;28;20234;-65
2022/05/17 09:04:17;;;;;;;8.02;5.40;;;23.90;99.90;;;;;;4986614;28;20576;-65
2022/05/17 09:06:53;;;;;;;5.85;4.38;;;23.90;99.90;;;;;;5023296;23;20252;-64
2022/05/17 09:09:26;;;;;;;8.40;4.50;;;23.90;99.90;;;;;;5011894;28;20659;-62
2022/05/17 09:12:00;;;;;;;6.60;4.65;;;23.90;99.90;;;;;;5011731;28;20245;-63
2022/05/17 09:14:33;;;;;;;4.70;4.30;;;23.90;99.90;;;;;;5011861;28;20205;-63
2022/05/17 09:17:05;;;;;;;8.18;5.32;;;23.90;99.90;;;;;;5011656;28;20275;-63
2022/05/17 09:19:33;;;;;;;5.35;4.85;;;24.00;99.90;;;;;;5011705;28;20738;-63
2022/05/17 09:22:02;;;;;;;9.60;5.53;;;24.10;99.90;;;;;;5004987;28;20721;-63
2022/05/17 09:24:35;;;;;;;6.70;4.22;;;24.30;99.90;;;;;;5005244;28;20263;-61
2022/05/17 09:27:07;;;;;;;8.77;5.07;;;24.40;99.90;;;;;;5011689;28;20641;-63
2022/05/17 09:29:39;;;;;;;4.40;4.00;;;24.60;99.90;;;;;;5011752;28;20267;-62
2022/05/17 09:32:11;;;;;;;7.57;4.80;;;24.80;99.90;;;;;;5010578;28;20260;-62
2022/05/17 09:34:41;;;;;;;9.90;4.85;;;25.10;99.90;;;;;;5011528;28;20193;-63
2022/05/17 09:37:13;;;;;;;5.38;4.18;;;25.40;99.90;;;;;;5011399;28;20241;-63
2022/05/17 09:39:46;;;;;;;8.50;5.22;;;25.50;99.90;;;;;;5011531;28;20724;-63
2022/05/17 09:42:25;;;;;;;8.25;3.65;;;25.80;99.90;;;;;;5010950;28;20851;-63
2022/05/17 09:44:56;;;;;;;7.55;3.78;;;26.10;99.90;;;;;;5011468;28;20267;-63
2022/05/17 09:47:30;;;;;;;6.80;4.15;;;26.20;99.90;;;;;;5011001;28;20297;-63
2022/05/17 09:53:01;;;;;;;6.60;4.03;;;26.50;99.90;;;;;;5010324;28;20749;-63
2022/05/17 09:55:31;;;;;;;10.00;3.60;;;26.90;99.90;;;;;;5011188;28;20636;-63
2022/05/17 09:58:02;;;;;;;5.57;3.40;;;27.10;99.90;;;;;;5011211;28;20683;-63
2022/05/17 10:00:40;;;;;;;4.90;3.40;;;27.40;99.90;;;;;;5011042;28;20601;-63
2022/05/17 10:03:29;;;;;;;5.03;3.72;;;27.40;99.90;;;;;;5004432;28;20205;-63
2022/05/17 10:06:00;;;;;;;4.85;3.17;;;27.30;99.80;;;;;;5010816;28;20780;-63
2022/05/17 10:08:42;;;;;;;5.40;2.80;;;27.30;98.90;;;;;;5011310;28;20267;-64
2022/05/17 10:11:22;;;;;;;3.20;2.67;;;27.20;99.90;;;;;;5011245;28;20295;-64
2022/05/17 10:14:00;;;;;;;4.40;2.97;;;27.30;99.00;;;;;;5010634;28;20689;-64
2022/05/17 10:16:36;;;;;;;4.13;2.78;;;27.40;99.00;;;;;;5010818;28;20667;-64
2022/05/17 10:19:10;;;;;;;4.45;2.70;;;27.50;98.30;;;;;;5012915;28;20744;-64
2022/05/17 10:21:43;;;;;;;4.25;3.03;;;27.70;98.20;;;;;;5015334;28;20197;-63
2022/05/17 10:24:19;;;;;;;3.33;2.80;;;27.60;99.10;;;;;;5014545;28;20255;-63
2022/05/17 10:26:52;;;;;;;3.47;2.85;;;27.60;98.00;;;;;;5014980;28;20248;-64
2022/05/17 10:29:27;;;;;;;4.63;3.15;;;27.50;98.50;;;;;;5014952;28;20284;-64
2022/05/17 10:32:06;;;;;;;6.15;3.03;;;27.50;97.50;;;;;;5013035;28;20232;-63
2022/05/17 10:34:58;;;;;;;6.55;2.40;;;27.60;98.70;;;;;;5014759;28;20205;-63
2022/05/17 10:37:32;;;;;;;4.30;2.50;;;27.80;97.30;;;;;;5014643;28;20221;-64
2022/05/17 10:40:06;;;;;;;4.35;2.67;;;28.00;96.30;;;;;;5014737;28;20237;-63
2022/05/17 10:42:35;;;;;;;5.63;3.20;;;28.20;94.70;;;;;;5007943;28;20237;-64
2022/05/17 10:45:05;;;;;;;5.35;2.35;;;28.40;96.00;;;;;;5014728;28;20212;-63
2022/05/17 10:47:47;;;;;;;3.53;2.00;;;28.50;95.60;;;;;;5014434;28;20733;-63
2022/05/17 10:50:26;;;;;;;3.83;1.92;;;28.70;94.40;;;;;;5014612;28;20241;-64
2022/05/17 10:53:14;;;;;;;2.63;1.90;;;28.80;94.10;;;;;;5013263;28;20221;-64
2022/05/17 10:55:52;;;;;;;2.55;1.45;;;28.40;94.30;;;;;;5014395;28;20628;-63
2022/05/17 10:58:31;;;;;;;2.75;1.65;;;28.50;93.60;;;;;;5014348;28;20330;-63
2022/05/17 11:01:06;;;;;;;3.28;1.27;;;28.70;92.10;;;;;;5014264;28;20292;-63
2022/05/17 11:04:03;;;;;;;2.70;1.52;;;28.80;91.30;;;;;;5002075;28;20576;-64
2022/05/17 11:06:38;;;;;;;5.60;1.65;;;28.90;93.30;;;;;;5008852;28;20617;-64
2022/05/17 11:09:14;;;;;;;5.22;1.90;;;28.70;92.40;;;;;;5014005;28;20288;-64
2022/05/17 11:11:59;;;;;;;3.15;2.00;;;28.80;93.00;;;;;;5014063;28;20296;-64
2022/05/17 11:14:31;;;;;;;4.10;1.90;;;29.00;92.20;;;;;;5013926;28;20251;-64
2022/05/17 11:17:06;;;;;;;3.40;1.70;;;28.90;91.90;;;;;;5014178;28;20640;-65
2022/05/17 11:19:42;;;;;;;2.53;2.13;;;29.10;92.10;;;;;;5008127;28;20236;-65
2022/05/17 11:22:23;;;;;;;5.47;2.25;;;29.00;91.70;;;;;;5013416;28;20229;-64
2022/05/17 11:25:14;;;;;;;2.90;1.90;;;28.70;92.10;;;;;;5013967;28;20205;-64
2022/05/17 11:28:08;;;;;;;6.40;2.03;;;28.30;92.10;;;;;;5007284;28;20229;-64
2022/05/17 11:30:49;;;;;;;4.10;1.95;;;27.60;91.50;;;;;;5012213;28;20232;-65
2022/05/17 11:33:33;;;;;;;4.95;2.30;;;27.20;92.40;;;;;;5012912;28;20217;-69
2022/05/17 11:36:05;;;;;;;4.25;2.10;;;26.70;93.10;;;;;;5013612;28;20320;-64
2022/05/17 11:38:49;;;;;;;3.85;2.90;;;26.50;93.60;;;;;;5013518;28;20297;-64
2022/05/17 11:41:23;;;;;;;4.65;2.30;;;26.70;94.60;;;;;;5013608;28;20623;-64
2022/05/17 11:44:30;;;;;;;3.47;1.70;;;27.30;93.00;;;;;;5012950;28;20288;-64
2022/05/17 11:46:59;;;;;;;4.30;1.50;;;27.90;91.90;;;;;;5003596;28;20331;-65
2022/05/17 11:49:48;;;;;;;2.03;1.45;;;28.60;92.20;;;;;;5013308;28;20201;-64
2022/05/17 11:52:30;;;;;;;4.15;1.77;;;29.00;91.10;;;;;;5012693;28;20403;-63
2022/05/17 11:55:04;;;;;;;5.18;1.92;;;29.60;92.20;;;;;;5013270;28;20201;-64
2022/05/17 11:58:00;;;;;;;4.45;1.65;;;29.70;91.30;;;;;;5012652;28;20229;-63
2022/05/17 12:00:49;;;;;;;1.58;1.48;;;29.60;91.80;;;;;;5012892;28;20237;-64
2022/05/17 12:03:52;;;;;;;4.43;1.80;;;29.40;90.50;;;;;;5012402;28;20224;-64
2022/05/17 12:07:04;;;;;;;3.08;1.80;;;28.90;90.30;;;;;;5006527;28;20302;-65
2022/05/17 12:09:36;;;;;;;2.90;1.92;;;28.30;90.60;;;;;;5013168;28;20219;-64
2022/05/17 12:12:43;;;;;;;1.85;1.30;;;28.20;91.80;;;;;;5005837;28;20288;-64
2022/05/17 12:15:29;;;;;;;2.70;1.70;;;28.00;91.30;;;;;;4999939;28;20686;-65
2022/05/17 12:18:14;;;;;;;3.30;1.60;;;27.90;90.80;;;;;;5010057;28;20733;-64
2022/05/17 12:20:57;;;;;;;3.03;1.30;;;27.70;91.50;;;;;;5013135;28;20284;-64
2022/05/17 12:23:32;;;;;;;1.85;1.30;;;27.50;92.20;;;;;;5012191;28;20201;-64
2022/05/17 12:26:07;;;;;;;2.30;1.40;;;27.40;92.00;;;;;;5012758;28;20724;-64
2022/05/17 12:28:46;;;;;;;3.08;1.52;;;27.00;93.20;;;;;;5007460;28;20304;-64
2022/05/17 12:31:21;;;;;;;1.90;1.63;;;26.80;93.70;;;;;;5012502;28;20251;-64
2022/05/17 12:33:50;;;;;;;2.20;2.00;;;26.80;93.10;;;;;;5011970;28;20243;-64
2022/05/17 12:36:20;;;;;;;4.85;2.28;;;27.00;92.40;;;;;;5012459;28;20233;-64
2022/05/17 12:44:33;;;;;;;2.50;2.25;;;27.20;93.50;;;;;;5012381;28;20194;-64
2022/05/17 12:47:02;;;;;;;5.07;2.50;;;27.30;94.70;;;;;;5012319;28;20237;-63
2022/05/17 12:49:32;;;;;;;7.00;2.28;;;27.80;93.90;;;;;;5012118;28;20209;-64
2022/05/17 12:52:10;;;;;;;5.60;2.00;;;27.90;93.00;;;;;;5011878;28;20621;-64
2022/05/17 12:54:38;;;;;;;3.22;2.75;;;28.30;92.40;;;;;;5012031;28;20271;-64
2022/05/17 12:57:20;;;;;;;3.50;2.13;;;28.70;92.00;;;;;;5012287;28;20260;-64
2022/05/17 12:59:47;;;;;;;6.20;2.25;;;28.90;92.10;;;;;;5011972;28;20717;-64
2022/05/17 13:02:23;;;;;;;6.75;2.30;;;29.20;91.20;;;;;;5008489;28;20243;-64
2022/05/17 13:04:51;;;;;;;2.50;1.88;;;29.60;91.00;;;;;;5011612;28;20197;-64
2022/05/17 13:07:23;;;;;;;4.68;2.60;;;29.90;91.70;;;;;;5011491;28;20268;-63
2022/05/17 13:09:56;;;;;;;4.53;2.28;;;29.80;91.30;;;;;;5005494;28;20243;-64
2022/05/17 13:12:27;;;;;;;3.08;2.40;;;29.40;91.70;;;;;;5011227;28;20228;-64
2022/05/17 13:14:56;;;;;;;2.55;2.35;;;29.50;91.70;;;;;;5012127;28;20698;-64
2022/05/17 13:17:28;;;;;;;4.10;2.42;;;29.60;90.30;;;;;;5011524;28;20221;-64
2022/05/17 13:20:00;;;;;;;4.30;2.03;;;29.40;90.10;;;;;;5011795;28;20201;-64
2022/05/17 13:22:29;;;;;;;3.05;2.10;;;29.40;90.80;;;;;;5010910;28;20201;-65
2022/05/17 13:25:02;;;;;;;4.43;2.30;;;29.60;90.20;;;;;;5011471;28;20212;-63